Time;durP1;ratioP1;P1;durP2;ratioP2;P2;SDS_P1;SDS_P2;PMS_P1;PMS_P2;Temp;Humidity;BMP_temperature;BMP_pressure;BME280_temperature;BME280_humidity;BME280_pressure;Samples;Min_cycle;Max_cycle;Signal;HPM_P1;HPM_P2
2024/03/17 00:02:11;;;;;;;0.30;0.20;;;;;;;8.42;99.27;101078.72;5002356;28;20217;-48
2024/03/17 00:04:36;;;;;;;0.30;0.20;;;;;;;8.48;98.95;101086.59;5004200;28;20722;-48
2024/03/17 00:07:02;;;;;;;0.30;0.20;;;;;;;8.41;98.91;101079.59;5014478;28;20213;-48
2024/03/17 00:09:27;;;;;;;0.30;0.20;;;;;;;8.38;99.75;101071.69;5008492;28;20841;-47
2024/03/17 00:11:53;;;;;;;0.30;0.20;;;;;;;8.41;99.55;101069.00;5004901;28;20216;-48
2024/03/17 00:14:18;;;;;;;0.30;0.20;;;;;;;8.44;99.71;101068.97;5026400;28;20241;-47
2024/03/17 00:16:44;;;;;;;0.30;0.20;;;;;;;8.40;99.54;101066.38;5007724;28;20553;-48
2024/03/17 00:19:10;;;;;;;0.30;0.20;;;;;;;8.16;100.00;101065.59;5002496;28;20247;-47
2024/03/17 00:21:35;;;;;;;0.40;0.20;;;;;;;8.20;100.00;101061.16;5001728;28;20216;-48
2024/03/17 00:24:02;;;;;;;0.30;0.20;;;;;;;8.23;100.00;101054.09;5000864;28;20681;-48
2024/03/17 00:26:29;;;;;;;0.30;0.20;;;;;;;8.26;100.00;101053.19;5014351;28;20216;-50
2024/03/17 00:28:55;;;;;;;0.30;0.20;;;;;;;8.20;100.00;101055.88;4997999;28;20862;-48
2024/03/17 00:31:20;;;;;;;0.30;0.20;;;;;;;8.35;100.00;101055.78;5000554;28;20488;-48
2024/03/17 00:33:46;;;;;;;0.30;0.20;;;;;;;8.36;100.00;101054.94;5013918;28;20469;-48
2024/03/17 00:36:12;;;;;;;0.30;0.20;;;;;;;8.33;100.00;101057.53;5007629;28;20263;-48
2024/03/17 00:38:37;;;;;;;0.30;0.20;;;;;;;8.26;100.00;101047.91;4999682;28;20220;-47
2024/03/17 00:41:04;;;;;;;0.30;0.20;;;;;;;8.25;99.74;101046.13;5006110;28;20228;-48
2024/03/17 00:43:29;;;;;;;0.30;0.20;;;;;;;7.92;100.00;101037.50;5005287;28;20272;-47
2024/03/17 00:45:55;;;;;;;0.30;0.20;;;;;;;7.70;100.00;101038.53;5007073;28;20460;-49
2024/03/17 00:48:21;;;;;;;0.30;0.20;;;;;;;7.71;100.00;101035.88;5012491;28;20455;-47
2024/03/17 00:50:55;;;;;;;0.30;0.20;;;;;;;7.64;100.00;101033.25;5001874;28;20235;-48
2024/03/17 00:53:21;;;;;;;0.30;0.20;;;;;;;7.48;100.00;101044.78;5014266;28;20263;-48
2024/03/17 00:55:54;;;;;;;0.30;0.20;;;;;;;7.43;100.00;101034.22;5009179;28;20480;-47
2024/03/17 00:58:20;;;;;;;0.30;0.20;;;;;;;7.39;100.00;101030.69;5012321;28;20456;-47
2024/03/17 01:00:47;;;;;;;0.30;0.20;;;;;;;7.35;100.00;101033.34;5007276;28;20969;-47
2024/03/17 01:03:14;;;;;;;0.30;0.20;;;;;;;7.32;100.00;101034.25;5009893;28;20463;-47
2024/03/17 01:05:42;;;;;;;0.30;0.20;;;;;;;7.36;100.00;101032.47;5009979;28;20554;-48
2024/03/17 01:08:09;;;;;;;0.30;0.20;;;;;;;7.22;100.00;101034.28;5014099;28;20463;-48
2024/03/17 01:10:39;;;;;;;0.30;0.20;;;;;;;7.01;100.00;101040.53;5007605;28;20487;-47
2024/03/17 01:13:08;;;;;;;0.30;0.20;;;;;;;6.97;100.00;101033.44;5007113;28;20452;-48
2024/03/17 01:15:35;;;;;;;0.30;0.20;;;;;;;7.00;100.00;101038.75;5008732;28;20852;-47
2024/03/17 01:18:01;;;;;;;0.30;0.20;;;;;;;6.99;100.00;101035.25;5014801;28;20456;-48
2024/03/17 01:20:26;;;;;;;0.30;0.20;;;;;;;6.97;100.00;101034.34;5013464;28;20541;-48
2024/03/17 01:22:52;;;;;;;0.30;0.20;;;;;;;7.14;100.00;101036.97;5007382;28;20225;-47
2024/03/17 01:25:18;;;;;;;0.30;0.20;;;;;;;7.14;100.00;101029.03;5027643;28;20655;-48
2024/03/17 01:27:43;;;;;;;0.30;0.20;;;;;;;7.13;100.00;101027.28;5016519;28;20213;-47
2024/03/17 01:30:10;;;;;;;0.30;0.20;;;;;;;7.17;100.00;101020.22;5014468;28;20304;-46
2024/03/17 01:32:36;;;;;;;0.30;0.20;;;;;;;7.27;100.00;101019.31;5006831;28;20217;-47
2024/03/17 01:35:02;;;;;;;0.30;0.20;;;;;;;7.37;100.00;101011.31;5015743;28;20572;-47
2024/03/17 01:37:31;;;;;;;0.30;0.20;;;;;;;7.22;100.00;101015.78;5000631;28;20221;-47
2024/03/17 01:40:00;;;;;;;0.30;0.20;;;;;;;7.30;100.00;101008.72;5006280;28;20836;-47
2024/03/17 01:42:25;;;;;;;0.30;0.20;;;;;;;7.24;100.00;101014.88;5008230;28;20463;-48
2024/03/17 01:44:51;;;;;;;0.30;0.20;;;;;;;7.19;100.00;101006.09;5010572;28;20915;-47
2024/03/17 01:47:18;;;;;;;0.30;0.20;;;;;;;7.13;100.00;101001.72;5007740;28;20296;-47
2024/03/17 01:49:49;;;;;;;0.30;0.20;;;;;;;7.11;100.00;100994.66;5013367;28;20656;-48
2024/03/17 01:52:16;;;;;;;0.30;0.20;;;;;;;7.03;100.00;100992.03;5006247;28;20469;-47
2024/03/17 01:54:43;;;;;;;0.30;0.20;;;;;;;7.09;100.00;100989.38;5010659;28;20484;-49
2024/03/17 01:57:09;;;;;;;0.30;0.20;;;;;;;6.98;100.00;100991.16;5005009;28;20465;-47
2024/03/17 01:59:35;;;;;;;0.30;0.20;;;;;;;7.01;100.00;100988.53;5012161;28;20457;-47
2024/03/17 02:02:02;;;;;;;0.30;0.20;;;;;;;7.12;100.00;100983.19;5002728;28;20603;-47
2024/03/17 02:04:28;;;;;;;0.40;0.33;;;;;;;7.06;100.00;100980.59;5016262;28;20238;-47
2024/03/17 02:06:54;;;;;;;0.30;0.20;;;;;;;6.98;100.00;100988.50;5006365;28;20834;-48
2024/03/17 02:09:20;;;;;;;0.30;0.20;;;;;;;6.86;100.00;100980.66;5014802;28;20467;-48
2024/03/17 02:11:45;;;;;;;0.30;0.20;;;;;;;6.91;100.00;100977.97;5005932;28;20229;-47
2024/03/17 02:14:14;;;;;;;0.30;0.20;;;;;;;6.76;100.00;100976.25;5014183;28;20479;-47
2024/03/17 02:16:40;;;;;;;0.30;0.20;;;;;;;6.86;100.00;100980.66;4997647;28;20581;-47
2024/03/17 02:19:06;;;;;;;0.30;0.20;;;;;;;6.89;100.00;100967.41;5014554;28;20451;-47
2024/03/17 02:21:32;;;;;;;0.30;0.20;;;;;;;7.03;100.00;100977.94;5005931;28;20531;-48
2024/03/17 02:23:57;;;;;;;0.30;0.20;;;;;;;6.71;100.00;100964.81;5001276;28;20242;-47
2024/03/17 02:26:25;;;;;;;0.30;0.20;;;;;;;6.47;100.00;100979.81;5000106;28;20213;-47
2024/03/17 02:28:51;;;;;;;0.30;0.20;;;;;;;6.52;100.00;100966.59;5028199;28;20217;-49
2024/03/17 02:31:17;;;;;;;0.30;0.20;;;;;;;6.78;100.00;100964.81;5007610;28;20483;-48
2024/03/17 02:33:44;;;;;;;0.30;0.20;;;;;;;6.80;100.00;100963.03;5005045;28;20570;-47
2024/03/17 02:36:11;;;;;;;0.30;0.20;;;;;;;6.86;100.00;100964.78;5008343;28;20700;-47
2024/03/17 02:41:22;;;;;;;0.30;0.20;;;;;;;6.81;100.00;100961.25;5002102;28;20838;-47
2024/03/17 02:43:48;;;;;;;0.30;0.20;;;;;;;6.85;100.00;100960.38;5005545;28;20491;-47
2024/03/17 02:46:15;;;;;;;0.30;0.20;;;;;;;6.93;100.00;100950.66;5005262;28;20641;-47
2024/03/17 02:48:47;;;;;;;0.30;0.20;;;;;;;6.92;100.00;100950.66;5031369;28;20205;-47
2024/03/17 02:51:17;;;;;;;0.30;0.20;;;;;;;6.80;100.00;100955.09;5004943;28;21109;-47
2024/03/17 02:53:47;;;;;;;0.30;0.20;;;;;;;6.90;100.00;100955.97;5006195;28;20483;-47
2024/03/17 02:56:17;;;;;;;0.30;0.20;;;;;;;6.73;100.00;100952.50;5012215;28;20545;-47
2024/03/17 02:58:46;;;;;;;0.30;0.20;;;;;;;6.83;100.00;100952.44;5006733;28;20864;-47
2024/03/17 03:01:11;;;;;;;0.30;0.20;;;;;;;6.78;100.00;100954.22;5006822;28;20449;-47
2024/03/17 03:03:37;;;;;;;0.30;0.20;;;;;;;6.65;100.00;100954.25;5007563;28;20835;-49
2024/03/17 03:06:08;;;;;;;0.30;0.20;;;;;;;6.67;100.00;100952.50;5011149;28;20224;-47
2024/03/17 03:08:38;;;;;;;0.30;0.20;;;;;;;6.52;100.00;100950.75;5003922;28;20542;-48
2024/03/17 03:11:06;;;;;;;0.30;0.20;;;;;;;6.37;100.00;100948.13;5002310;28;20502;-47
2024/03/17 03:13:31;;;;;;;0.30;0.20;;;;;;;6.40;100.00;100951.66;5015882;28;20463;-47
2024/03/17 03:15:57;;;;;;;0.30;0.20;;;;;;;6.39;100.00;100954.28;5012128;28;21012;-47
2024/03/17 03:18:23;;;;;;;0.30;0.20;;;;;;;6.15;100.00;100966.59;5009216;28;20217;-48
2024/03/17 03:20:53;;;;;;;0.30;0.20;;;;;;;6.14;100.00;100956.94;4998379;28;20798;-47
2024/03/17 03:23:19;;;;;;;0.30;0.20;;;;;;;6.11;100.00;100964.84;4996186;28;20468;-47
2024/03/17 03:25:46;;;;;;;0.30;0.20;;;;;;;6.12;100.00;100963.09;5015281;28;20475;-47
2024/03/17 03:28:12;;;;;;;0.30;0.20;;;;;;;6.18;100.00;100964.00;5009399;28;20464;-48
2024/03/17 03:30:37;;;;;;;0.30;0.20;;;;;;;6.07;100.00;100963.09;5011288;28;20490;-47
2024/03/17 03:33:05;;;;;;;0.30;0.20;;;;;;;5.86;100.00;100969.19;5015574;28;20228;-47
2024/03/17 03:35:31;;;;;;;0.30;0.17;;;;;;;5.74;100.00;100970.91;5012055;28;20229;-48
2024/03/17 03:37:57;;;;;;;0.30;0.20;;;;;;;5.85;100.00;100964.78;5012810;28;20828;-47
2024/03/17 03:40:22;;;;;;;0.30;0.20;;;;;;;5.68;100.00;100963.00;5008228;28;20456;-47
2024/03/17 03:42:48;;;;;;;0.30;0.20;;;;;;;5.62;100.00;100969.16;5001845;28;20252;-47
2024/03/17 03:45:14;;;;;;;0.30;0.20;;;;;;;5.62;100.00;100972.69;5014815;28;20244;-48
2024/03/17 03:47:43;;;;;;;0.30;0.20;;;;;;;5.46;100.00;100965.56;5035025;28;20347;-47
2024/03/17 03:50:14;;;;;;;0.30;0.20;;;;;;;5.46;100.00;100975.25;5013979;28;20862;-47
2024/03/17 03:52:42;;;;;;;0.30;0.20;;;;;;;5.41;100.00;100979.63;4996711;28;20971;-49
2024/03/17 03:55:14;;;;;;;0.30;0.20;;;;;;;5.25;100.00;100976.06;5003691;28;20475;-47
2024/03/17 03:57:52;;;;;;;0.30;0.20;;;;;;;5.17;100.00;100973.38;5006187;28;20468;-47
2024/03/17 04:00:21;;;;;;;0.30;0.20;;;;;;;5.13;100.00;100968.09;5004011;28;20460;-47
2024/03/17 04:02:52;;;;;;;0.30;0.20;;;;;;;4.99;100.00;100976.81;5012269;28;20452;-47
2024/03/17 04:05:19;;;;;;;0.30;0.20;;;;;;;5.01;100.00;100980.34;5007091;28;20483;-47
2024/03/17 04:07:46;;;;;;;0.30;0.20;;;;;;;5.09;100.00;100977.75;5001571;28;20464;-47
2024/03/17 04:10:13;;;;;;;0.30;0.20;;;;;;;4.92;100.00;100975.00;5002283;28;20484;-49
2024/03/17 04:12:39;;;;;;;0.30;0.20;;;;;;;4.86;100.00;100969.72;5014222;28;20816;-47
2024/03/17 04:15:06;;;;;;;0.30;0.20;;;;;;;5.00;100.00;100973.31;5001935;28;20484;-48
2024/03/17 04:17:32;;;;;;;0.30;0.20;;;;;;;4.66;99.72;100985.41;5014564;28;20216;-47
2024/03/17 04:19:58;;;;;;;0.30;0.20;;;;;;;4.74;99.68;100985.44;5005359;28;20460;-48
2024/03/17 04:22:25;;;;;;;0.30;0.10;;;;;;;4.56;99.84;100977.44;5012864;28;20525;-48
2024/03/17 04:24:56;;;;;;;0.30;0.20;;;;;;;4.60;100.00;100972.19;5010977;28;20479;-47
2024/03/17 04:27:25;;;;;;;0.30;0.20;;;;;;;4.61;100.00;100965.16;5002900;28;20460;-48
2024/03/17 04:29:55;;;;;;;0.30;0.20;;;;;;;4.68;100.00;100967.00;5005645;28;20457;-48
2024/03/17 04:32:21;;;;;;;0.30;0.20;;;;;;;4.66;100.00;100976.59;5006281;28;20852;-48
2024/03/17 04:34:47;;;;;;;0.30;0.10;;;;;;;4.89;100.00;100979.38;5022973;28;20853;-48
2024/03/17 04:37:13;;;;;;;0.30;0.20;;;;;;;4.98;100.00;100975.06;4998004;28;20464;-49
2024/03/17 04:39:43;;;;;;;0.30;0.20;;;;;;;5.00;100.00;100968.03;5005306;28;20672;-48
2024/03/17 04:42:09;;;;;;;0.30;0.20;;;;;;;4.93;100.00;100967.97;5005330;28;20689;-48
2024/03/17 04:44:35;;;;;;;0.30;0.10;;;;;;;4.93;100.00;100967.97;5021917;28;20476;-48
2024/03/17 04:47:06;;;;;;;0.30;0.20;;;;;;;4.89;100.00;100969.72;5016492;28;20976;-51
2024/03/17 04:49:42;;;;;;;0.30;0.20;;;;;;;4.94;100.00;100975.94;5004275;28;20213;-48
2024/03/17 04:52:09;;;;;;;0.30;0.20;;;;;;;4.97;100.00;100965.41;5002839;28;20471;-48
2024/03/17 04:54:35;;;;;;;0.30;0.20;;;;;;;5.03;100.00;100964.53;5012197;28;20487;-49
2024/03/17 04:57:01;;;;;;;0.30;0.20;;;;;;;4.95;100.00;100959.25;5014969;28;20829;-48
2024/03/17 04:59:26;;;;;;;0.30;0.20;;;;;;;4.95;100.00;100959.25;4992542;28;20957;-49
2024/03/17 05:01:55;;;;;;;0.30;0.20;;;;;;;4.62;100.00;100961.66;5006075;28;20483;-48
2024/03/17 05:04:21;;;;;;;0.30;0.20;;;;;;;4.54;100.00;100968.66;5011488;28;20245;-51
2024/03/17 05:06:49;;;;;;;0.30;0.10;;;;;;;4.34;100.00;100971.13;4990376;28;20460;-50
2024/03/17 05:09:19;;;;;;;0.30;0.20;;;;;;;4.40;100.00;100971.19;5011575;28;20217;-51
2024/03/17 05:11:44;;;;;;;0.30;0.20;;;;;;;4.25;100.00;100968.41;5010569;28;20502;-50
2024/03/17 05:14:10;;;;;;;0.30;0.20;;;;;;;4.28;100.00;100968.47;5017653;28;20476;-50
2024/03/17 05:16:36;;;;;;;0.30;0.20;;;;;;;4.29;100.00;100967.59;5016596;28;20212;-51
2024/03/17 05:19:03;;;;;;;0.30;0.20;;;;;;;4.52;100.00;100968.63;5030913;28;20448;-51
2024/03/17 05:21:30;;;;;;;0.30;0.20;;;;;;;4.42;100.00;100964.19;5017719;28;20670;-51
2024/03/17 05:24:02;;;;;;;0.30;0.20;;;;;;;4.46;100.00;100958.94;5011332;28;20472;-51
2024/03/17 05:26:28;;;;;;;0.30;0.20;;;;;;;4.33;100.00;100957.09;5012169;28;20965;-51
2024/03/17 05:28:54;;;;;;;0.30;0.10;;;;;;;4.42;100.00;100957.16;5007080;28;20452;-50
2024/03/17 05:31:21;;;;;;;0.30;0.20;;;;;;;4.64;100.00;100957.28;5012594;28;20225;-50
2024/03/17 05:33:47;;;;;;;0.30;0.20;;;;;;;4.56;100.00;100964.28;5002828;28;20237;-50
2024/03/17 05:36:13;;;;;;;0.30;0.20;;;;;;;4.37;100.00;100961.50;5033971;28;20464;-50
2024/03/17 05:38:39;;;;;;;0.30;0.20;;;;;;;4.56;100.00;100978.31;5004251;28;20858;-49
2024/03/17 05:41:06;;;;;;;0.30;0.30;;;;;;;4.54;100.00;100977.44;5006763;28;20461;-50
2024/03/17 05:43:35;;;;;;;0.30;0.20;;;;;;;4.31;100.00;100971.09;5004354;28;20225;-50
2024/03/17 05:46:03;;;;;;;0.30;0.20;;;;;;;4.33;100.00;100975.50;5004223;28;20456;-50
2024/03/17 05:48:32;;;;;;;0.30;0.20;;;;;;;4.15;100.00;100975.38;5017441;28;21030;-50
2024/03/17 05:51:00;;;;;;;0.30;0.20;;;;;;;4.21;100.00;100969.25;5009390;28;20481;-50
2024/03/17 05:53:26;;;;;;;0.30;0.20;;;;;;;4.18;100.00;100982.41;5016362;28;20452;-50
2024/03/17 05:55:52;;;;;;;0.30;0.10;;;;;;;4.09;100.00;100976.19;5012104;28;21023;-50
2024/03/17 05:58:17;;;;;;;0.30;0.20;;;;;;;4.06;100.00;100986.69;5001907;28;20206;-50
2024/03/17 06:00:43;;;;;;;0.30;0.20;;;;;;;4.07;100.00;100980.53;5010766;28;20221;-50
2024/03/17 06:03:10;;;;;;;0.30;0.13;;;;;;;4.06;100.00;100983.16;5005334;28;20224;-50
2024/03/17 06:05:37;;;;;;;0.30;0.20;;;;;;;4.16;100.00;100977.13;5004008;28;20488;-49
2024/03/17 06:08:04;;;;;;;1.90;1.90;;;;;;;4.04;100.00;100972.63;5009118;28;20467;-50
2024/03/17 06:10:34;;;;;;;0.30;0.10;;;;;;;4.11;100.00;100974.47;4997343;28;20489;-49
2024/03/17 06:13:00;;;;;;;0.30;0.20;;;;;;;4.05;100.00;100981.41;5006217;28;20467;-49
2024/03/17 06:15:26;;;;;;;0.30;0.20;;;;;;;4.28;100.00;100978.97;5014384;28;20483;-49
2024/03/17 06:17:53;;;;;;;0.30;0.10;;;;;;;4.43;100.00;100981.72;5006118;28;20244;-50
2024/03/17 06:20:28;;;;;;;0.30;0.20;;;;;;;4.42;100.00;100985.22;4998978;28;20453;-50
2024/03/17 06:22:55;;;;;;;0.80;0.80;;;;;;;4.58;100.00;100978.31;5016969;28;20479;-50
2024/03/17 06:25:23;;;;;;;0.30;0.20;;;;;;;4.60;100.00;100972.19;5004593;28;20903;-49
2024/03/17 06:27:52;;;;;;;0.30;0.10;;;;;;;4.64;100.00;100966.06;5016632;28;20464;-50
2024/03/17 06:30:18;;;;;;;0.30;0.20;;;;;;;4.71;100.00;100961.72;5016650;28;20484;-49
2024/03/17 06:32:45;;;;;;;0.30;0.20;;;;;;;4.82;100.00;100964.44;5016288;28;20471;-49
2024/03/17 06:35:18;;;;;;;0.30;0.17;;;;;;;4.88;100.00;100962.69;5020828;28;20571;-50
2024/03/17 06:37:47;;;;;;;0.30;0.20;;;;;;;5.02;100.00;100968.91;5014661;28;20968;-49
2024/03/17 06:40:15;;;;;;;0.30;0.20;;;;;;;5.19;100.00;100968.13;5003099;28;20953;-49
2024/03/17 06:42:41;;;;;;;0.30;0.17;;;;;;;5.24;100.00;100967.28;5002889;28;20472;-49
2024/03/17 06:45:08;;;;;;;0.30;0.20;;;;;;;5.33;100.00;100969.03;5009135;28;20849;-49
2024/03/17 06:47:35;;;;;;;0.30;0.20;;;;;;;5.39;100.00;100970.84;5001121;28;20530;-50
2024/03/17 06:50:05;;;;;;;0.30;0.20;;;;;;;5.44;100.00;100969.97;5014468;28;20946;-50
2024/03/17 06:52:33;;;;;;;0.30;0.20;;;;;;;5.73;100.00;100974.44;5008886;28;20456;-50
2024/03/17 06:54:59;;;;;;;0.30;0.17;;;;;;;5.90;100.00;100975.41;5007777;28;20852;-50
2024/03/17 06:57:25;;;;;;;0.30;0.20;;;;;;;5.87;100.00;100975.34;5010063;28;20461;-50
2024/03/17 06:59:51;;;;;;;0.30;0.20;;;;;;;5.93;100.00;100975.41;5009761;28;20244;-49
2024/03/17 07:02:18;;;;;;;0.30;0.20;;;;;;;6.18;100.00;100976.31;4996840;28;20453;-50
2024/03/17 07:04:44;;;;;;;0.30;0.20;;;;;;;6.39;100.00;100978.06;5012016;28;20244;-50
2024/03/17 07:07:10;;;;;;;0.30;0.20;;;;;;;6.42;100.00;100973.66;5013823;28;20464;-50
2024/03/17 07:09:35;;;;;;;0.30;0.20;;;;;;;6.43;100.00;100969.25;5015989;28;20471;-50
2024/03/17 07:12:01;;;;;;;0.30;0.20;;;;;;;6.63;100.00;100975.41;5038326;28;20224;-50
2024/03/17 07:14:27;;;;;;;0.30;0.20;;;;;;;6.75;100.00;100967.47;5015310;28;20239;-51
2024/03/17 07:16:53;;;;;;;0.30;0.20;;;;;;;6.79;100.00;100966.56;4994137;28;20476;-50
2024/03/17 07:19:19;;;;;;;0.30;0.20;;;;;;;6.83;100.00;100965.66;5015856;28;20468;-50
2024/03/17 07:21:45;;;;;;;0.30;0.20;;;;;;;6.88;100.00;100954.22;5012105;28;20615;-50
2024/03/17 07:24:10;;;;;;;1.13;1.03;;;;;;;6.91;100.00;100956.84;5016022;28;20698;-50
2024/03/17 07:26:36;;;;;;;0.30;0.20;;;;;;;6.79;100.00;100953.34;5015534;28;20686;-49
2024/03/17 07:29:01;;;;;;;0.30;0.20;;;;;;;6.95;100.00;100954.19;5001618;28;20213;-50
2024/03/17 07:31:27;;;;;;;0.30;0.20;;;;;;;7.20;100.00;100956.75;5015504;28;20233;-50
2024/03/17 07:33:52;;;;;;;0.30;0.20;;;;;;;7.23;100.00;100962.88;5018125;28;20594;-49
2024/03/17 07:36:18;;;;;;;0.30;0.20;;;;;;;7.21;100.00;100955.84;5009490;28;20212;-49
2024/03/17 07:38:44;;;;;;;0.30;0.20;;;;;;;7.21;100.00;100955.84;4996405;28;20225;-49
2024/03/17 07:41:09;;;;;;;0.30;0.20;;;;;;;7.31;100.00;100955.81;5009232;28;20832;-48
2024/03/17 07:43:37;;;;;;;0.30;0.20;;;;;;;7.42;100.00;100961.06;5015555;28;20271;-49
2024/03/17 07:46:09;;;;;;;0.30;0.20;;;;;;;7.46;100.00;100952.22;5003037;28;20709;-49
2024/03/17 07:48:36;;;;;;;0.30;0.20;;;;;;;7.51;100.00;100960.09;5010408;28;20515;-49
2024/03/17 07:51:04;;;;;;;0.30;0.20;;;;;;;7.52;100.00;100954.81;4998129;28;20488;-49
2024/03/17 07:53:34;;;;;;;0.40;0.30;;;;;;;7.63;100.00;100957.41;5012283;28;20468;-50
2024/03/17 07:56:04;;;;;;;0.30;0.20;;;;;;;7.69;100.00;100960.03;5010378;28;20470;-49
2024/03/17 07:58:33;;;;;;;1.23;1.13;;;;;;;7.93;100.00;100961.63;5006087;28;20500;-49
2024/03/17 08:01:00;;;;;;;0.30;0.20;;;;;;;7.94;100.00;100961.59;5008184;28;20452;-49
2024/03/17 08:03:27;;;;;;;0.30;0.20;;;;;;;8.10;100.00;100962.38;4995370;28;20457;-48
2024/03/17 08:05:53;;;;;;;0.30;0.20;;;;;;;8.23;100.00;100973.78;4998667;28;20518;-50
2024/03/17 08:08:19;;;;;;;0.30;0.20;;;;;;;8.31;100.00;100969.28;5004607;28;20456;-50
2024/03/17 08:10:48;;;;;;;0.30;0.20;;;;;;;8.38;100.00;100975.44;5031176;28;20229;-50
2024/03/17 08:13:22;;;;;;;0.30;0.20;;;;;;;8.25;100.00;100959.63;5005412;28;20460;-49
2024/03/17 08:15:59;;;;;;;0.30;0.20;;;;;;;8.49;100.00;100965.59;5000004;28;20459;-50
2024/03/17 08:18:26;;;;;;;0.30;0.20;;;;;;;8.64;100.00;100967.25;5008229;28;20463;-50
2024/03/17 08:20:54;;;;;;;0.30;0.20;;;;;;;8.76;99.18;100959.16;5002373;28;20453;-49
2024/03/17 08:23:20;;;;;;;0.30;0.20;;;;;;;8.60;99.25;100959.31;5008303;28;20836;-49
2024/03/17 08:25:56;;;;;;;0.30;0.20;;;;;;;8.75;100.00;100968.88;5014886;28;20484;-48
2024/03/17 08:28:23;;;;;;;0.30;0.30;;;;;;;8.67;100.00;100962.81;5009645;28;20459;-49
2024/03/17 08:30:53;;;;;;;0.30;0.20;;;;;;;8.78;100.00;100965.34;5013867;28;20565;-49
2024/03/17 08:33:19;;;;;;;0.30;0.20;;;;;;;8.48;100.00;100961.19;5004279;28;20457;-49
2024/03/17 08:35:57;;;;;;;0.30;0.20;;;;;;;8.59;99.00;100949.63;5022105;28;20472;-48
2024/03/17 08:38:24;;;;;;;0.30;0.20;;;;;;;9.08;98.46;100948.22;5014049;28;20463;-49
2024/03/17 08:40:53;;;;;;;0.30;0.20;;;;;;;9.04;96.93;100936.75;5009582;28;20827;-49
2024/03/17 08:43:21;;;;;;;0.30;0.20;;;;;;;8.72;98.48;100937.13;5018577;28;20862;-48
2024/03/17 08:46:05;;;;;;;0.30;0.20;;;;;;;8.75;99.22;100930.91;5014495;28;20483;-49
2024/03/17 08:48:33;;;;;;;0.30;0.20;;;;;;;9.23;99.09;100925.94;5007272;28;20471;-49
2024/03/17 08:51:00;;;;;;;0.30;0.20;;;;;;;9.51;97.90;100919.34;5007818;28;21031;-49
2024/03/17 08:53:26;;;;;;;0.30;0.20;;;;;;;9.97;96.29;100921.31;4994912;28;20467;-49
2024/03/17 08:55:53;;;;;;;0.30;0.20;;;;;;;9.91;95.14;100922.28;5008694;28;20887;-49
2024/03/17 08:58:19;;;;;;;0.30;0.20;;;;;;;9.76;95.84;100922.53;5006724;28;20460;-49
2024/03/17 09:00:45;;;;;;;0.30;0.20;;;;;;;9.73;96.04;100926.13;5008173;28;20468;-49
2024/03/17 09:03:11;;;;;;;0.30;0.20;;;;;;;9.88;96.52;100927.66;4994911;28;20229;-49
2024/03/17 09:05:41;;;;;;;0.30;0.20;;;;;;;10.06;96.11;100929.13;5008757;28;20492;-49
2024/03/17 09:08:10;;;;;;;1.40;1.40;;;;;;;10.37;96.11;100927.75;5014493;28;20530;-49
2024/03/17 09:10:40;;;;;;;0.30;0.20;;;;;;;10.69;94.72;100926.31;5014220;28;20495;-49
2024/03/17 09:13:06;;;;;;;0.30;0.20;;;;;;;10.31;95.28;100914.56;5014190;28;20506;-49
2024/03/17 09:15:31;;;;;;;0.30;0.20;;;;;;;10.59;93.81;100916.75;5013832;28;20491;-49
2024/03/17 09:17:57;;;;;;;0.30;0.20;;;;;;;10.70;94.91;100921.88;5014522;28;20209;-49
2024/03/17 09:20:23;;;;;;;0.30;0.20;;;;;;;10.73;94.09;100914.69;5001119;28;20578;-50
2024/03/17 09:22:48;;;;;;;0.30;0.20;;;;;;;10.83;93.60;100915.41;5010227;28;20288;-49
2024/03/17 09:25:14;;;;;;;0.30;0.20;;;;;;;10.83;92.16;100913.63;4998634;28;20245;-49
2024/03/17 09:27:40;;;;;;;0.30;0.20;;;;;;;10.98;88.88;100920.41;5004924;28;20221;-49
2024/03/17 09:30:09;;;;;;;2.47;2.43;;;;;;;10.77;87.68;100916.38;4997024;28;20844;-49
2024/03/17 09:32:35;;;;;;;0.30;0.20;;;;;;;10.61;87.51;100917.59;5016292;28;20217;-49
2024/03/17 09:35:01;;;;;;;0.30;0.20;;;;;;;10.56;87.66;100927.44;5030841;28;20475;-48
2024/03/17 09:37:27;;;;;;;0.30;0.20;;;;;;;10.89;87.20;100913.47;5017571;28;20905;-49
2024/03/17 09:39:53;;;;;;;0.30;0.20;;;;;;;11.27;85.75;100912.69;5047769;28;20229;-49
2024/03/17 09:42:19;;;;;;;0.30;0.20;;;;;;;11.43;83.82;100909.69;5009662;28;20494;-48
2024/03/17 09:44:49;;;;;;;0.30;0.20;;;;;;;11.06;84.54;100915.81;5017165;28;21320;-48
2024/03/17 09:47:21;;;;;;;0.30;0.20;;;;;;;11.24;85.11;100914.56;5017278;28;21011;-49
2024/03/17 09:49:48;;;;;;;0.30;0.20;;;;;;;11.42;84.56;100900.84;5017417;28;20533;-49
2024/03/17 09:52:34;;;;;;;0.30;0.20;;;;;;;11.52;83.82;100904.19;5017261;28;20506;-49
2024/03/17 09:55:06;;;;;;;0.30;0.20;;;;;;;11.63;83.50;100901.25;5012306;28;20489;-49
2024/03/17 09:57:33;;;;;;;0.30;0.20;;;;;;;11.68;83.98;100899.38;5015933;28;20455;-49
2024/03/17 09:59:58;;;;;;;0.30;0.20;;;;;;;11.74;84.56;100897.44;5005014;28;20467;-49
2024/03/17 10:02:24;;;;;;;0.30;0.20;;;;;;;11.64;83.08;100897.69;5015847;28;20538;-49
2024/03/17 10:04:50;;;;;;;0.30;0.20;;;;;;;11.65;83.96;100903.00;4997507;28;20276;-48
2024/03/17 10:07:15;;;;;;;0.30;0.20;;;;;;;11.98;82.46;100901.34;5010684;28;20217;-49
2024/03/17 10:09:44;;;;;;;0.30;0.20;;;;;;;11.96;84.32;100903.16;5016982;28;20560;-49
2024/03/17 10:12:29;;;;;;;0.40;0.40;;;;;;;11.91;82.16;100901.50;5015787;28;20232;-49
2024/03/17 10:14:59;;;;;;;0.30;0.20;;;;;;;12.31;80.31;100907.59;5006982;28;21008;-48
2024/03/17 10:17:35;;;;;;;0.30;0.20;;;;;;;12.51;79.92;100914.22;5016734;28;20467;-49
2024/03/17 10:20:15;;;;;;;0.30;0.20;;;;;;;12.33;79.95;100907.56;5049824;28;20466;-49
2024/03/17 10:22:59;;;;;;;0.30;0.20;;;;;;;12.35;79.77;100900.41;5009974;28;20463;-49
2024/03/17 10:25:25;;;;;;;0.30;0.20;;;;;;;12.32;79.80;100903.13;5013068;28;20492;-49
2024/03/17 10:27:52;;;;;;;0.77;0.77;;;;;;;12.54;79.99;100900.78;5007513;28;20461;-49
2024/03/17 10:30:22;;;;;;;1.90;1.70;;;;;;;12.76;79.23;100904.66;5013082;28;20464;-49
2024/03/17 10:33:02;;;;;;;0.30;0.20;;;;;;;12.63;78.28;100900.56;5006281;28;20464;-49
2024/03/17 10:35:31;;;;;;;0.30;0.20;;;;;;;12.46;80.74;100904.53;5000141;28;20476;-49
2024/03/17 10:38:01;;;;;;;0.30;0.20;;;;;;;12.73;80.39;100894.03;5003012;28;20985;-49
2024/03/17 10:40:29;;;;;;;0.30;0.20;;;;;;;12.54;79.58;100900.78;5016319;28;20464;-49
2024/03/17 10:42:55;;;;;;;0.30;0.20;;;;;;;12.33;80.34;100897.75;5002929;28;20472;-49
2024/03/17 10:45:24;;;;;;;0.30;0.20;;;;;;;12.65;79.18;100898.72;5008267;28;20488;-48
2024/03/17 10:47:51;;;;;;;0.30;0.20;;;;;;;12.59;78.07;100902.41;5009526;28;20478;-49
2024/03/17 10:50:22;;;;;;;0.30;0.20;;;;;;;12.57;78.95;100888.25;4980436;28;20468;-49
2024/03/17 10:52:50;;;;;;;0.30;0.20;;;;;;;12.41;78.23;100878.91;5011954;28;20474;-49
2024/03/17 10:55:24;;;;;;;0.30;0.20;;;;;;;12.71;77.62;100878.06;5015971;28;20537;-49
2024/03/17 10:57:51;;;;;;;0.30;0.20;;;;;;;12.85;78.28;100876.81;5015922;28;20460;-49
2024/03/17 11:00:21;;;;;;;0.30;0.20;;;;;;;12.97;77.95;100877.34;5005762;28;20468;-49
2024/03/17 11:02:53;;;;;;;0.30;0.20;;;;;;;12.90;77.95;100869.56;5013312;28;20463;-49
2024/03/17 11:05:30;;;;;;;0.30;0.20;;;;;;;13.05;78.12;100867.31;5049441;28;20499;-47
2024/03/17 11:08:01;;;;;;;0.30;0.20;;;;;;;13.13;76.49;100868.88;5026423;28;20430;-47
2024/03/17 11:10:34;;;;;;;0.30;0.20;;;;;;;12.63;77.44;100860.56;4996092;28;20466;-49
2024/03/17 11:13:01;;;;;;;0.30;0.20;;;;;;;12.95;78.99;100868.50;4996120;28;20457;-48
2024/03/17 11:15:30;;;;;;;0.30;0.20;;;;;;;13.46;78.47;100867.03;5009228;28;20479;-48
2024/03/17 11:18:21;;;;;;;0.30;0.20;;;;;;;13.48;76.66;100860.72;5004209;28;20456;-45
2024/03/17 11:20:56;;;;;;;0.30;0.20;;;;;;;12.98;76.23;100862.19;5011958;28;20438;-46
2024/03/17 11:23:29;;;;;;;0.30;0.20;;;;;;;13.51;76.23;100851.72;5015633;28;20455;-46
2024/03/17 11:25:56;;;;;;;0.30;0.20;;;;;;;13.31;75.69;100858.56;5015415;28;20917;-46
2024/03/17 11:28:49;;;;;;;0.30;0.20;;;;;;;13.26;75.92;100862.28;5015124;28;20797;-46
2024/03/17 11:31:35;;;;;;;0.30;0.20;;;;;;;13.34;74.57;100865.59;4995673;28;20471;-46
2024/03/17 11:34:07;;;;;;;0.30;0.20;;;;;;;13.42;76.54;100860.88;4995999;28;20484;-46